イルクーツク の空港の天気 - METARとTAF

イルクーツク国際空港 ( UIII / IKT ) - ロシア イルクーツク
飛行場実況気象(Metar)
観測時間04/26 00:00 +08 (04/25 16:00 UTC)
風向・風速不定 1m/s
視程10km以上
天気現象
なし
気温3℃
湿度44%
気圧1028hPa
METARUIII 251600Z VRB01MPS CAVOK 03/M08 Q1028 R12/CLRD60 NOSIG RMK QFE728/0971
過去の天気等 Google飛行場航空写真 Wunderground天気予報

過去48時間のMETAR

飛行場予報(TAF)
発表時間: 4/25 22:00 +08 (4/25 14:00 UTC)
予報対象時間: 25日23時 +08 ~ 26日23時 +08
風向・風速南南東 4m/s
視程10km以上
なし
TAF UIII 251400Z 2515/2615 16004MPS CAVOK